createdAt,value
2022-10-19T00:02:37.134Z,9.98
2022-10-19T00:05:39.923Z,9.90
2022-10-19T00:08:43.475Z,9.82
2022-10-19T00:11:48.434Z,9.74
2022-10-19T00:14:50.943Z,9.70
2022-10-19T00:17:53.643Z,9.62
2022-10-19T00:21:06.304Z,9.57
2022-10-19T00:24:09.074Z,9.56
2022-10-19T00:27:11.535Z,9.54
2022-10-19T00:30:14.330Z,9.58
2022-10-19T00:33:21.451Z,9.56
2022-10-19T00:36:27.632Z,9.51
2022-10-19T00:39:30.017Z,9.46
2022-10-19T00:42:32.924Z,9.50
2022-10-19T00:45:35.568Z,9.52
2022-10-19T00:48:38.612Z,9.59
2022-10-19T00:51:50.760Z,9.68
2022-10-19T00:54:55.541Z,9.72
2022-10-19T00:57:58.111Z,9.77
2022-10-19T01:01:04.941Z,9.84
2022-10-19T01:04:08.793Z,9.92
2022-10-19T01:07:12.945Z,10.00
2022-10-19T01:10:15.502Z,10.08
2022-10-19T01:13:21.165Z,10.18
2022-10-19T01:17:00.885Z,10.23
2022-10-19T01:20:33.199Z,10.35
2022-10-19T01:24:13.248Z,10.35
2022-10-19T01:27:43.682Z,10.37
2022-10-19T01:31:24.419Z,10.39
2022-10-19T01:34:38.754Z,10.45
2022-10-19T01:37:52.559Z,10.56
2022-10-19T01:40:58.627Z,10.48
2022-10-19T01:44:11.394Z,10.51
2022-10-19T01:47:41.505Z,10.54
2022-10-19T01:50:55.684Z,10.75
2022-10-19T01:54:04.120Z,10.63
2022-10-19T01:57:10.323Z,10.57
2022-10-19T02:00:17.200Z,10.52
2022-10-19T02:03:20.982Z,10.52
2022-10-19T02:06:23.908Z,10.50
2022-10-19T02:09:26.639Z,10.68
2022-10-19T02:12:32.084Z,10.53
2022-10-19T02:15:38.662Z,10.53
2022-10-19T02:18:46.735Z,10.64
2022-10-19T02:21:50.294Z,10.60
2022-10-19T02:24:53.065Z,10.71
2022-10-19T02:27:55.534Z,10.70
2022-10-19T02:30:59.971Z,10.70
2022-10-19T02:34:02.630Z,10.86
2022-10-19T02:37:06.502Z,10.92
2022-10-19T02:40:09.908Z,11.10
2022-10-19T02:43:19.199Z,11.25
2022-10-19T02:46:44.230Z,11.46
2022-10-19T02:49:48.797Z,11.56
2022-10-19T02:52:51.481Z,11.57
2022-10-19T02:55:54.220Z,11.66
2022-10-19T02:58:57.167Z,11.74
2022-10-19T03:01:59.785Z,11.83
2022-10-19T03:05:02.783Z,11.83
2022-10-19T03:08:05.812Z,12.01
2022-10-19T03:11:08.257Z,12.33
2022-10-19T03:14:10.948Z,12.67
2022-10-19T03:17:13.645Z,12.92
2022-10-19T03:20:16.478Z,13.16
2022-10-19T03:23:18.860Z,13.22
2022-10-19T03:26:21.604Z,13.26
2022-10-19T03:29:24.025Z,13.23
2022-10-19T03:32:26.835Z,13.16
2022-10-19T03:35:29.275Z,13.19
2022-10-19T03:38:31.997Z,13.13
2022-10-19T03:41:36.576Z,12.98
2022-10-19T03:44:39.252Z,13.01
2022-10-19T03:47:41.652Z,13.11
2022-10-19T03:51:01.814Z,13.09
2022-10-19T03:54:06.968Z,13.00
2022-10-19T03:57:10.397Z,12.96
2022-10-19T04:00:13.410Z,12.75
2022-10-19T04:03:15.667Z,12.69
2022-10-19T04:06:21.998Z,12.61
2022-10-19T04:09:24.653Z,12.53
2022-10-19T04:12:27.370Z,12.52
2022-10-19T04:15:29.866Z,12.48
2022-10-19T04:18:32.590Z,12.45
2022-10-19T04:21:37.863Z,12.46
2022-10-19T04:24:40.523Z,12.37
2022-10-19T04:27:43.011Z,12.24
2022-10-19T04:30:45.716Z,12.13
2022-10-19T04:33:48.127Z,12.08
2022-10-19T04:36:50.859Z,12.00
2022-10-19T04:39:53.333Z,12.08
2022-10-19T04:42:56.014Z,12.13
2022-10-19T04:46:03.149Z,12.05
2022-10-19T04:49:06.957Z,12.18
2022-10-19T04:52:09.449Z,12.12
2022-10-19T04:55:12.121Z,12.03
2022-10-19T04:58:14.499Z,12.03
2022-10-19T05:01:21.904Z,11.86
2022-10-19T05:04:24.443Z,11.89
2022-10-19T05:07:27.263Z,11.72
2022-10-19T05:10:29.798Z,11.79
2022-10-19T05:13:33.493Z,11.61
2022-10-19T05:16:35.997Z,11.74
2022-10-19T05:19:38.897Z,11.57
2022-10-19T05:22:41.657Z,11.60
2022-10-19T05:25:44.425Z,11.64
2022-10-19T05:28:49.319Z,11.50
2022-10-19T05:31:52.032Z,11.45
2022-10-19T05:34:54.942Z,11.32
2022-10-19T05:37:57.619Z,11.49
2022-10-19T05:41:01.073Z,11.60
2022-10-19T05:44:05.200Z,11.55
2022-10-19T05:47:07.668Z,11.62
2022-10-19T05:50:10.561Z,11.76
2022-10-19T05:53:13.033Z,11.80
2022-10-19T05:56:21.897Z,11.84
2022-10-19T05:59:24.427Z,11.90
2022-10-19T06:02:27.377Z,11.88
2022-10-19T06:05:30.043Z,11.90
2022-10-19T06:08:33.749Z,11.90
2022-10-19T06:11:39.262Z,11.91
2022-10-19T06:14:42.919Z,12.00
2022-10-19T06:17:45.614Z,12.10
2022-10-19T06:20:50.196Z,12.11
2022-10-19T06:24:02.819Z,12.17
2022-10-19T06:27:06.605Z,12.35
2022-10-19T06:30:09.962Z,12.46
2022-10-19T06:33:13.011Z,12.58
2022-10-19T06:36:21.931Z,12.90
2022-10-19T06:39:24.342Z,13.05
2022-10-19T06:42:27.027Z,13.14
2022-10-19T06:45:33.450Z,13.33
2022-10-19T06:48:38.782Z,13.54
2022-10-19T06:51:41.326Z,13.63
2022-10-19T06:54:44.093Z,13.75
2022-10-19T06:57:46.468Z,13.79
2022-10-19T07:00:58.578Z,13.87
2022-10-19T07:04:01.153Z,13.99
2022-10-19T07:07:04.410Z,14.11
2022-10-19T07:10:08.490Z,14.19
2022-10-19T07:13:11.477Z,14.31
2022-10-19T07:16:19.661Z,14.40
2022-10-19T07:19:27.443Z,14.42
2022-10-19T07:22:29.901Z,14.48
2022-10-19T07:25:32.881Z,14.56
2022-10-19T07:28:35.873Z,14.69
2022-10-19T07:31:38.678Z,14.73
2022-10-19T07:34:41.244Z,14.78
2022-10-19T07:37:43.956Z,14.89
2022-10-19T07:40:48.451Z,14.91
2022-10-19T07:43:52.211Z,15.03
2022-10-19T07:46:54.664Z,15.09
2022-10-19T07:49:57.337Z,15.11
2022-10-19T07:52:59.761Z,15.28
2022-10-19T07:56:09.461Z,15.35
2022-10-19T07:59:14.343Z,15.57
2022-10-19T08:02:18.315Z,15.63
2022-10-19T08:05:21.165Z,15.67
2022-10-19T08:08:24.623Z,15.79
2022-10-19T08:11:30.778Z,15.85
2022-10-19T08:14:33.626Z,15.98
2022-10-19T08:17:37.037Z,16.13
2022-10-19T08:20:45.699Z,16.29
2022-10-19T08:23:49.254Z,16.39
2022-10-19T08:26:52.177Z,16.52
2022-10-19T08:29:55.087Z,16.67
2022-10-19T08:32:57.505Z,16.73
2022-10-19T08:36:00.323Z,16.89
2022-10-19T08:39:04.922Z,16.89
2022-10-19T08:42:18.644Z,17.05
2022-10-19T08:45:43.128Z,17.06
2022-10-19T08:48:46.388Z,17.17
2022-10-19T08:51:54.906Z,17.29
2022-10-19T08:54:58.916Z,17.45
2022-10-19T08:58:30.907Z,17.51
2022-10-19T09:01:56.874Z,17.62
2022-10-19T09:05:05.742Z,17.80
2022-10-19T09:08:14.177Z,17.86
2022-10-19T09:11:27.771Z,18.00
2022-10-19T09:14:38.641Z,18.08
2022-10-19T09:17:43.058Z,18.12
2022-10-19T09:20:49.376Z,18.25
2022-10-19T09:23:55.496Z,18.24
2022-10-19T09:27:02.351Z,18.47
2022-10-19T09:30:14.685Z,18.47
2022-10-19T09:33:26.938Z,18.53
2022-10-19T09:36:50.150Z,18.92
2022-10-19T09:39:55.500Z,19.10
2022-10-19T09:42:59.422Z,19.12
2022-10-19T09:46:19.969Z,19.08
2022-10-19T09:49:49.723Z,19.23
2022-10-19T09:52:56.663Z,19.30
2022-10-19T09:56:06.962Z,19.39
2022-10-19T09:59:22.405Z,19.31
2022-10-19T10:02:33.098Z,19.41
2022-10-19T10:05:39.157Z,19.84
2022-10-19T10:08:52.678Z,19.79
2022-10-19T10:12:00.195Z,19.95
2022-10-19T10:15:06.488Z,20.19
2022-10-19T10:18:18.190Z,20.42
2022-10-19T10:21:27.464Z,20.36
2022-10-19T10:24:34.422Z,19.82
2022-10-19T10:27:39.198Z,19.43
2022-10-19T10:30:45.805Z,19.67
2022-10-19T10:34:11.165Z,19.49
2022-10-19T10:37:35.697Z,19.44
2022-10-19T10:40:39.541Z,19.46
2022-10-19T10:43:55.431Z,19.40
2022-10-19T10:47:00.630Z,19.32
2022-10-19T10:50:06.791Z,19.27
2022-10-19T10:53:29.157Z,19.38
2022-10-19T10:56:34.362Z,19.33
2022-10-19T10:59:45.868Z,19.42
2022-10-19T11:03:23.837Z,19.15
2022-10-19T11:06:27.000Z,19.09
2022-10-19T11:09:36.504Z,19.03
2022-10-19T11:12:45.302Z,19.15
2022-10-19T11:15:59.358Z,19.19
2022-10-19T11:19:24.485Z,19.09
2022-10-19T11:22:34.375Z,19.06
2022-10-19T11:25:55.011Z,18.70
2022-10-19T11:29:17.013Z,18.67
2022-10-19T11:32:29.383Z,18.77
2022-10-19T11:35:47.476Z,18.59
2022-10-19T11:38:56.135Z,18.50
2022-10-19T11:42:06.308Z,18.50
2022-10-19T11:45:41.665Z,18.58
2022-10-19T11:49:03.347Z,18.64
2022-10-19T11:52:14.209Z,18.76
2022-10-19T11:55:43.601Z,18.77
2022-10-19T11:59:07.167Z,18.74
2022-10-19T12:02:51.347Z,18.66
2022-10-19T12:06:08.087Z,18.56
2022-10-19T12:09:36.745Z,18.54
2022-10-19T12:12:45.763Z,18.69
2022-10-19T12:15:53.814Z,18.62
2022-10-19T12:19:01.034Z,18.51
2022-10-19T12:22:07.143Z,18.59
2022-10-19T12:25:14.612Z,18.70
2022-10-19T12:28:29.548Z,18.61
2022-10-19T12:31:36.085Z,18.48
2022-10-19T12:34:56.420Z,18.54
2022-10-19T12:38:06.887Z,18.35
2022-10-19T12:41:26.472Z,18.36
2022-10-19T12:44:44.488Z,18.35
2022-10-19T12:48:25.583Z,18.44
2022-10-19T12:51:45.383Z,18.42
2022-10-19T12:54:47.906Z,18.53
2022-10-19T12:58:17.504Z,18.58
2022-10-19T13:01:42.148Z,18.64
2022-10-19T13:04:54.492Z,18.68
2022-10-19T13:07:58.207Z,18.59
2022-10-19T13:11:15.227Z,18.67
2022-10-19T13:14:17.685Z,18.59
2022-10-19T13:17:40.838Z,18.56
2022-10-19T13:20:53.618Z,18.44
2022-10-19T13:24:36.543Z,18.46
2022-10-19T13:27:39.697Z,18.57
2022-10-19T13:30:46.368Z,18.48
2022-10-19T13:33:49.865Z,18.46
2022-10-19T13:37:00.778Z,18.59
2022-10-19T13:40:23.645Z,18.55
2022-10-19T13:43:32.807Z,18.68
2022-10-19T13:47:03.856Z,18.59
2022-10-19T13:50:12.979Z,19.13
2022-10-19T13:53:18.804Z,20.74
2022-10-19T13:56:49.621Z,22.14
2022-10-19T14:00:01.925Z,22.22
2022-10-19T14:03:40.321Z,21.26
2022-10-19T14:06:52.620Z,20.56
2022-10-19T14:10:08.446Z,20.28
2022-10-19T14:13:15.415Z,19.62
2022-10-19T14:16:20.805Z,19.20
2022-10-19T14:19:30.963Z,19.37
2022-10-19T14:22:34.513Z,19.34
2022-10-19T14:25:37.447Z,19.08
2022-10-19T14:28:41.068Z,19.02
2022-10-19T14:31:43.817Z,18.83
2022-10-19T14:34:48.308Z,18.60
2022-10-19T14:37:51.410Z,18.45
2022-10-19T14:40:56.007Z,18.26
2022-10-19T14:44:00.575Z,18.07
2022-10-19T14:47:15.137Z,18.23
2022-10-19T14:50:23.416Z,18.55
2022-10-19T14:54:01.106Z,18.45
2022-10-19T14:57:08.523Z,18.48
2022-10-19T15:00:20.970Z,18.20
2022-10-19T15:03:28.172Z,18.17
2022-10-19T15:06:35.510Z,17.85
2022-10-19T15:09:48.171Z,17.52
2022-10-19T15:12:52.563Z,17.30
2022-10-19T15:15:55.765Z,16.79
2022-10-19T15:19:04.371Z,16.65
2022-10-19T15:22:19.225Z,16.46
2022-10-19T15:25:31.084Z,16.21
2022-10-19T15:28:41.460Z,16.03
2022-10-19T15:31:44.278Z,15.85
2022-10-19T15:34:47.078Z,15.67
2022-10-19T15:37:50.742Z,15.64
2022-10-19T15:40:59.170Z,15.43
2022-10-19T15:44:08.360Z,15.36
2022-10-19T15:47:20.168Z,15.28
2022-10-19T15:50:36.457Z,15.14
2022-10-19T15:53:39.091Z,15.04
2022-10-19T15:56:41.875Z,14.91
2022-10-19T15:59:44.896Z,14.83
2022-10-19T16:02:47.375Z,14.80
2022-10-19T16:05:50.216Z,14.78
2022-10-19T16:08:54.196Z,14.75
2022-10-19T16:11:57.470Z,14.67
2022-10-19T16:15:01.100Z,14.64
2022-10-19T16:18:04.066Z,14.59
2022-10-19T16:21:07.354Z,14.47
2022-10-19T16:24:10.290Z,14.34
2022-10-19T16:27:16.386Z,14.22
2022-10-19T16:30:19.750Z,14.05
2022-10-19T16:33:23.270Z,13.95
2022-10-19T16:36:26.322Z,14.02
2022-10-19T16:39:29.524Z,13.90
2022-10-19T16:42:33.355Z,13.79
2022-10-19T16:45:36.286Z,13.84
2022-10-19T16:48:39.197Z,13.86
2022-10-19T16:51:42.480Z,13.79
2022-10-19T16:54:47.862Z,13.65
2022-10-19T16:57:52.491Z,13.67
2022-10-19T17:00:56.326Z,13.42
2022-10-19T17:04:00.622Z,13.27
2022-10-19T17:07:04.197Z,13.25
2022-10-19T17:10:07.449Z,13.19
2022-10-19T17:13:10.945Z,13.09
2022-10-19T17:16:14.841Z,13.05
2022-10-19T17:19:18.171Z,12.98
2022-10-19T17:22:20.871Z,12.96
2022-10-19T17:25:24.001Z,12.81
2022-10-19T17:28:28.786Z,12.79
2022-10-19T17:31:34.605Z,12.89
2022-10-19T17:34:37.354Z,13.01
2022-10-19T17:37:40.434Z,12.93
2022-10-19T17:40:47.615Z,12.90
2022-10-19T17:43:54.468Z,12.91
2022-10-19T17:46:57.297Z,12.86
2022-10-19T17:50:00.781Z,12.80
2022-10-19T17:53:04.607Z,12.70
2022-10-19T17:56:08.370Z,12.58
2022-10-19T17:59:11.433Z,12.56
2022-10-19T18:02:14.436Z,12.54
2022-10-19T18:05:17.617Z,12.55
2022-10-19T18:08:20.316Z,12.42
2022-10-19T18:11:37.244Z,12.31
2022-10-19T18:14:40.564Z,12.26
2022-10-19T18:17:43.802Z,12.32
2022-10-19T18:20:47.480Z,12.28
2022-10-19T18:23:53.531Z,12.12
2022-10-19T18:26:56.280Z,11.99
2022-10-19T18:29:59.380Z,11.91
2022-10-19T18:33:02.232Z,11.91
2022-10-19T18:36:06.752Z,11.67
2022-10-19T18:39:11.437Z,11.56
2022-10-19T18:42:16.413Z,11.39
2022-10-19T18:45:19.473Z,11.27
2022-10-19T18:48:25.253Z,11.36
2022-10-19T18:51:29.177Z,11.28
2022-10-19T18:54:32.160Z,11.27
2022-10-19T18:57:34.915Z,11.25
2022-10-19T19:00:45.578Z,11.25
2022-10-19T19:03:49.904Z,11.23
2022-10-19T19:06:53.324Z,11.12
2022-10-19T19:09:56.475Z,11.10
2022-10-19T19:13:00.540Z,11.03
2022-10-19T19:16:03.300Z,11.07
2022-10-19T19:19:07.646Z,11.02
2022-10-19T19:22:10.521Z,10.95
2022-10-19T19:25:13.469Z,10.82
2022-10-19T19:28:16.214Z,10.74
2022-10-19T19:31:20.349Z,10.85
2022-10-19T19:34:23.866Z,10.80
2022-10-19T19:37:26.834Z,10.72
2022-10-19T19:40:34.310Z,10.64
2022-10-19T19:43:38.369Z,10.78
2022-10-19T19:46:42.256Z,10.88
2022-10-19T19:49:45.477Z,10.73
2022-10-19T19:52:48.624Z,10.63
2022-10-19T19:55:51.682Z,10.55
2022-10-19T19:58:59.119Z,10.46
2022-10-19T20:02:02.868Z,10.35
2022-10-19T20:05:05.970Z,10.29
2022-10-19T20:08:09.349Z,10.26
2022-10-19T20:11:14.595Z,10.32
2022-10-19T20:14:18.786Z,10.50
2022-10-19T20:17:23.835Z,10.42
2022-10-19T20:20:29.350Z,10.29
2022-10-19T20:23:32.843Z,10.13
2022-10-19T20:26:35.876Z,10.24
2022-10-19T20:29:38.801Z,10.14
2022-10-19T20:32:41.564Z,10.05
2022-10-19T20:35:44.550Z,10.04
2022-10-19T20:38:58.015Z,9.90
2022-10-19T20:42:01.217Z,9.99
2022-10-19T20:45:07.288Z,9.82
2022-10-19T20:48:15.356Z,9.79
2022-10-19T20:51:19.300Z,9.77
2022-10-19T20:54:22.344Z,9.78
2022-10-19T20:57:25.200Z,9.68
2022-10-19T21:00:30.893Z,9.58
2022-10-19T21:03:33.528Z,9.47
2022-10-19T21:06:44.606Z,9.54
2022-10-19T21:09:47.122Z,9.50
2022-10-19T21:12:49.836Z,9.40
2022-10-19T21:15:54.600Z,9.35
2022-10-19T21:18:57.496Z,9.42
2022-10-19T21:22:02.262Z,9.41
2022-10-19T21:25:05.452Z,9.29
2022-10-19T21:28:08.041Z,9.30
2022-10-19T21:31:10.816Z,9.17
2022-10-19T21:34:18.056Z,9.15
2022-10-19T21:37:20.769Z,9.16
2022-10-19T21:40:25.716Z,9.27
2022-10-19T21:43:28.911Z,9.30
2022-10-19T21:46:31.494Z,9.20
2022-10-19T21:49:34.785Z,9.18
2022-10-19T21:52:37.113Z,9.13
2022-10-19T21:55:39.923Z,9.10
2022-10-19T21:58:47.315Z,9.02
2022-10-19T22:01:50.229Z,9.07
2022-10-19T22:04:53.004Z,9.11
2022-10-19T22:07:55.567Z,9.16
2022-10-19T22:11:08.047Z,9.32
2022-10-19T22:14:13.046Z,9.12
2022-10-19T22:17:15.721Z,9.00
2022-10-19T22:20:18.492Z,8.93
2022-10-19T22:23:21.185Z,8.89
2022-10-19T22:26:26.600Z,8.88
2022-10-19T22:29:29.339Z,8.97
2022-10-19T22:32:31.783Z,8.97
2022-10-19T22:35:34.509Z,9.14
2022-10-19T22:38:37.037Z,8.92
2022-10-19T22:42:36.364Z,8.97
2022-10-19T22:45:57.645Z,8.93
2022-10-19T22:49:00.635Z,8.79
2022-10-19T22:52:03.506Z,8.65
2022-10-19T22:55:06.548Z,8.59
2022-10-19T22:58:09.580Z,8.65
2022-10-19T23:01:14.787Z,8.60
2022-10-19T23:04:17.367Z,8.64
2022-10-19T23:07:20.116Z,8.65
2022-10-19T23:10:23.293Z,8.60
2022-10-19T23:13:26.100Z,8.58
2022-10-19T23:19:36.305Z,8.52
2022-10-19T23:22:39.127Z,8.49
2022-10-19T23:25:41.829Z,8.46
2022-10-19T23:28:46.073Z,8.53
2022-10-19T23:31:50.662Z,8.31
2022-10-19T23:34:53.137Z,8.39
2022-10-19T23:37:55.930Z,8.28
2022-10-19T23:40:58.481Z,8.17
2022-10-19T23:44:01.163Z,8.18
2022-10-19T23:47:03.547Z,8.10
2022-10-19T23:50:06.766Z,8.11
2022-10-19T23:53:09.547Z,8.08
2022-10-19T23:56:15.627Z,8.00
2022-10-19T23:59:18.054Z,7.92
